createdAt,value
2023-05-12T00:00:57.269Z,0.00
2023-05-12T00:01:57.261Z,0.00
2023-05-12T00:02:57.583Z,0.00
2023-05-12T00:03:57.462Z,0.00
2023-05-12T00:04:57.668Z,0.00
2023-05-12T00:05:57.233Z,0.00
2023-05-12T00:06:57.199Z,0.00
2023-05-12T00:07:57.190Z,0.00
2023-05-12T00:08:57.201Z,0.00
2023-05-12T00:09:57.194Z,0.00
2023-05-12T00:10:57.172Z,0.00
2023-05-12T00:11:57.138Z,0.00
2023-05-12T00:12:57.142Z,0.00
2023-05-12T00:13:57.188Z,0.00
2023-05-12T00:14:57.120Z,0.00
2023-05-12T00:15:57.178Z,0.00
2023-05-12T00:16:57.115Z,0.00
2023-05-12T00:17:57.096Z,0.00
2023-05-12T00:18:57.086Z,0.00
2023-05-12T00:19:57.055Z,0.00
2023-05-12T00:20:58.020Z,0.00
2023-05-12T00:21:57.041Z,0.00
2023-05-12T00:22:57.019Z,0.00
2023-05-12T00:23:57.021Z,0.00
2023-05-12T00:24:57.009Z,0.00
2023-05-12T00:25:56.991Z,0.00
2023-05-12T00:26:56.978Z,0.00
2023-05-12T00:27:56.981Z,0.00
2023-05-12T00:28:56.958Z,0.00
2023-05-12T00:29:57.012Z,0.00
2023-05-12T00:30:56.934Z,0.00
2023-05-12T00:31:57.048Z,0.00
2023-05-12T00:32:56.938Z,0.00
2023-05-12T00:33:56.911Z,0.00
2023-05-12T00:34:56.890Z,0.00
2023-05-12T00:35:56.888Z,0.00
2023-05-12T00:36:56.874Z,0.00
2023-05-12T00:37:56.864Z,0.00
2023-05-12T00:38:56.871Z,0.00
2023-05-12T00:39:56.862Z,0.00
2023-05-12T00:40:56.831Z,0.00
2023-05-12T00:41:56.844Z,0.00
2023-05-12T00:42:56.807Z,0.00
2023-05-12T00:43:56.806Z,0.00
2023-05-12T00:44:56.790Z,0.00
2023-05-12T00:45:56.871Z,0.00
2023-05-12T00:46:56.763Z,0.00
2023-05-12T00:47:56.807Z,0.00
2023-05-12T00:48:56.739Z,0.00
2023-05-12T00:49:56.733Z,0.00
2023-05-12T00:50:56.754Z,0.00
2023-05-12T00:51:56.720Z,0.00
2023-05-12T00:52:56.759Z,0.00
2023-05-12T00:53:56.696Z,0.00
2023-05-12T00:54:56.676Z,0.00
2023-05-12T00:55:56.689Z,0.00
2023-05-12T00:56:56.661Z,0.00
2023-05-12T00:57:56.653Z,0.00
2023-05-12T00:58:56.634Z,0.00
2023-05-12T00:59:56.764Z,0.00
2023-05-12T01:00:56.630Z,0.00
2023-05-12T01:01:56.607Z,0.00
2023-05-12T01:02:56.743Z,0.00
2023-05-12T01:03:56.628Z,0.00
2023-05-12T01:04:56.597Z,0.00
2023-05-12T01:05:56.565Z,0.00
2023-05-12T01:06:56.551Z,0.00
2023-05-12T01:07:56.552Z,0.00
2023-05-12T01:08:56.525Z,0.00
2023-05-12T01:09:56.544Z,0.00
2023-05-12T01:10:56.506Z,0.00
2023-05-12T01:11:56.502Z,0.00
2023-05-12T01:12:56.493Z,0.00
2023-05-12T01:13:56.487Z,0.00
2023-05-12T01:14:56.477Z,0.00
2023-05-12T01:15:56.460Z,0.00
2023-05-12T01:16:56.464Z,0.00
2023-05-12T01:17:56.467Z,0.00
2023-05-12T01:18:56.459Z,0.00
2023-05-12T01:19:56.427Z,0.00
2023-05-12T01:20:56.412Z,0.00
2023-05-12T01:21:56.413Z,0.00
2023-05-12T01:22:56.401Z,0.00
2023-05-12T01:23:56.393Z,0.00
2023-05-12T01:24:56.390Z,0.00
2023-05-12T01:25:56.360Z,0.00
2023-05-12T01:26:56.342Z,0.00
2023-05-12T01:27:56.338Z,0.00
2023-05-12T01:28:56.324Z,0.00
2023-05-12T01:29:56.332Z,0.00
2023-05-12T01:30:56.333Z,0.00
2023-05-12T01:31:56.310Z,0.00
2023-05-12T01:32:56.340Z,0.00
2023-05-12T01:33:56.278Z,0.00
2023-05-12T01:34:56.254Z,0.00
2023-05-12T01:35:56.276Z,0.00
2023-05-12T01:36:56.236Z,0.00
2023-05-12T01:37:56.231Z,0.00
2023-05-12T01:38:56.219Z,0.00
2023-05-12T01:39:56.207Z,0.00
2023-05-12T01:40:56.205Z,0.00
2023-05-12T01:41:56.195Z,0.00
2023-05-12T01:42:56.186Z,0.00
2023-05-12T01:43:56.164Z,0.00
2023-05-12T01:44:56.153Z,0.00
2023-05-12T01:45:56.163Z,0.00
2023-05-12T01:46:56.240Z,0.00
2023-05-12T01:47:56.154Z,0.00
2023-05-12T01:48:56.118Z,0.00
2023-05-12T01:49:56.098Z,0.00
2023-05-12T01:50:56.132Z,0.00
2023-05-12T01:51:56.110Z,0.00
2023-05-12T01:52:56.082Z,0.00
2023-05-12T01:53:56.059Z,0.00
2023-05-12T01:54:56.052Z,0.00
2023-05-12T01:55:56.055Z,0.00
2023-05-12T01:56:56.072Z,0.00
2023-05-12T01:57:56.031Z,0.00
2023-05-12T01:58:56.082Z,0.00
2023-05-12T01:59:56.018Z,0.00
2023-05-12T02:00:55.982Z,0.00
2023-05-12T02:01:56.027Z,0.00
2023-05-12T02:02:56.090Z,0.00
2023-05-12T02:03:56.060Z,0.00
2023-05-12T02:04:55.946Z,0.00
2023-05-12T02:05:55.921Z,0.00
2023-05-12T02:06:55.927Z,0.00
2023-05-12T02:07:55.930Z,0.00
2023-05-12T02:08:55.896Z,0.00
2023-05-12T02:09:55.904Z,0.00
2023-05-12T02:10:55.871Z,0.00
2023-05-12T02:11:55.892Z,0.00
2023-05-12T02:12:55.872Z,0.00
2023-05-12T02:13:55.853Z,0.00
2023-05-12T02:14:55.821Z,0.00
2023-05-12T02:15:55.851Z,0.00
2023-05-12T02:16:55.824Z,0.00
2023-05-12T02:17:55.871Z,0.00
2023-05-12T02:18:55.849Z,0.00
2023-05-12T02:19:55.801Z,0.00
2023-05-12T02:20:55.757Z,0.00
2023-05-12T02:21:55.772Z,0.00
2023-05-12T02:22:55.753Z,0.00
2023-05-12T02:23:55.741Z,0.00
2023-05-12T02:24:55.739Z,0.00
2023-05-12T02:25:55.721Z,0.00
2023-05-12T02:26:55.698Z,0.00
2023-05-12T02:27:55.708Z,0.00
2023-05-12T02:28:55.700Z,0.00
2023-05-12T02:29:55.666Z,0.00
2023-05-12T02:30:55.672Z,0.00
2023-05-12T02:31:55.679Z,0.00
2023-05-12T02:32:55.700Z,0.00
2023-05-12T02:33:55.638Z,0.00
2023-05-12T02:34:55.611Z,0.00
2023-05-12T02:35:55.610Z,0.00
2023-05-12T02:36:55.595Z,0.00
2023-05-12T02:37:55.594Z,0.00
2023-05-12T02:38:55.578Z,0.00
2023-05-12T02:39:55.579Z,0.00
2023-05-12T02:40:55.554Z,0.00
2023-05-12T02:41:55.577Z,0.00
2023-05-12T02:42:55.540Z,0.00
2023-05-12T02:43:55.544Z,0.00
2023-05-12T02:44:55.511Z,0.00
2023-05-12T02:45:55.550Z,0.00
2023-05-12T02:46:55.504Z,0.00
2023-05-12T02:47:55.557Z,0.00
2023-05-12T02:48:55.491Z,0.00
2023-05-12T02:49:55.466Z,0.00
2023-05-12T02:50:55.481Z,0.00
2023-05-12T02:51:55.440Z,0.00
2023-05-12T02:52:55.412Z,0.00
2023-05-12T02:53:55.418Z,0.00
2023-05-12T02:54:55.407Z,0.00
2023-05-12T02:55:55.400Z,0.00
2023-05-12T02:56:55.378Z,0.00
2023-05-12T02:57:55.382Z,0.00
2023-05-12T02:58:55.370Z,0.00
2023-05-12T02:59:55.371Z,0.00
2023-05-12T03:01:06.648Z,0.00
2023-05-12T03:01:56.544Z,0.00
2023-05-12T03:02:55.381Z,0.00
2023-05-12T03:03:55.402Z,0.00
2023-05-12T03:04:55.290Z,0.00
2023-05-12T03:05:55.295Z,0.00
2023-05-12T03:06:55.290Z,0.00
2023-05-12T03:07:55.268Z,0.00
2023-05-12T03:08:55.296Z,0.00
2023-05-12T03:09:55.252Z,0.00
2023-05-12T03:10:55.250Z,0.00
2023-05-12T03:11:55.240Z,0.00
2023-05-12T03:12:55.209Z,0.00
2023-05-12T03:13:55.198Z,0.00
2023-05-12T03:14:55.205Z,0.00
2023-05-12T03:15:55.193Z,0.00
2023-05-12T03:16:55.200Z,0.00
2023-05-12T03:17:55.225Z,0.00
2023-05-12T03:18:55.203Z,0.00
2023-05-12T03:19:55.152Z,0.00
2023-05-12T03:20:55.133Z,0.00
2023-05-12T03:21:55.123Z,0.00
2023-05-12T03:22:55.114Z,4.00
2023-05-12T03:23:55.111Z,4.00
2023-05-12T03:24:55.108Z,4.00
2023-05-12T03:25:55.057Z,0.00
2023-05-12T03:26:55.060Z,4.00
2023-05-12T03:27:55.058Z,4.00
2023-05-12T03:28:55.049Z,4.00
2023-05-12T03:29:55.071Z,4.00
2023-05-12T03:30:55.108Z,4.00
2023-05-12T03:31:55.025Z,8.00
2023-05-12T03:32:55.027Z,4.00
2023-05-12T03:33:54.995Z,8.00
2023-05-12T03:34:54.996Z,8.00
2023-05-12T03:35:54.990Z,8.00
2023-05-12T03:36:54.953Z,8.00
2023-05-12T03:37:54.948Z,12.00
2023-05-12T03:38:54.918Z,12.00
2023-05-12T03:39:54.932Z,16.00
2023-05-12T03:40:54.940Z,20.00
2023-05-12T03:41:54.938Z,20.00
2023-05-12T03:42:54.895Z,24.00
2023-05-12T03:43:54.888Z,24.00
2023-05-12T03:44:54.866Z,28.00
2023-05-12T03:45:54.915Z,28.00
2023-05-12T03:46:54.917Z,28.00
2023-05-12T03:47:54.896Z,36.00
2023-05-12T03:48:54.836Z,36.00
2023-05-12T03:49:54.826Z,40.00
2023-05-12T03:50:54.804Z,44.00
2023-05-12T03:51:54.799Z,48.00
2023-05-12T03:52:54.826Z,48.00
2023-05-12T03:53:54.781Z,56.00
2023-05-12T03:54:54.767Z,60.00
2023-05-12T03:55:54.754Z,64.00
2023-05-12T03:56:54.729Z,64.00
2023-05-12T03:57:54.754Z,68.00
2023-05-12T03:58:54.732Z,80.00
2023-05-12T03:59:54.700Z,80.00
2023-05-12T04:00:54.680Z,80.00
2023-05-12T04:01:54.685Z,84.00
2023-05-12T04:02:54.834Z,88.00
2023-05-12T04:03:54.801Z,96.00
2023-05-12T04:04:54.661Z,108.00
2023-05-12T04:05:54.642Z,116.00
2023-05-12T04:06:54.617Z,124.00
2023-05-12T04:07:54.654Z,132.00
2023-05-12T04:08:54.620Z,128.00
2023-05-12T04:09:54.602Z,144.00
2023-05-12T04:10:54.597Z,164.00
2023-05-12T04:11:54.591Z,180.00
2023-05-12T04:12:54.554Z,180.00
2023-05-12T04:13:54.576Z,176.00
2023-05-12T04:14:54.553Z,172.00
2023-05-12T04:15:54.547Z,180.00
2023-05-12T04:16:54.530Z,184.00
2023-05-12T04:17:54.564Z,184.00
2023-05-12T04:18:54.555Z,200.00
2023-05-12T04:19:54.495Z,212.00
2023-05-12T04:20:54.483Z,220.00
2023-05-12T04:21:54.474Z,228.00
2023-05-12T04:22:54.466Z,240.00
2023-05-12T04:23:54.441Z,252.00
2023-05-12T04:24:54.437Z,256.00
2023-05-12T04:25:54.429Z,256.00
2023-05-12T04:26:54.419Z,260.00
2023-05-12T04:27:54.418Z,268.00
2023-05-12T04:28:54.409Z,272.00
2023-05-12T04:29:54.386Z,276.00
2023-05-12T04:30:54.381Z,272.00
2023-05-12T04:31:54.401Z,280.00
2023-05-12T04:32:54.377Z,288.00
2023-05-12T04:33:54.349Z,300.00
2023-05-12T04:34:54.330Z,304.00
2023-05-12T04:35:54.358Z,312.00
2023-05-12T04:36:54.314Z,320.00
2023-05-12T04:37:54.302Z,324.00
2023-05-12T04:38:54.282Z,344.00
2023-05-12T04:39:54.319Z,360.00
2023-05-12T04:40:54.272Z,364.00
2023-05-12T04:41:54.269Z,380.00
2023-05-12T04:42:54.248Z,408.00
2023-05-12T04:44:54.344Z,396.00
2023-05-12T04:45:55.014Z,396.00
2023-05-12T04:46:54.915Z,408.00
2023-05-12T04:47:54.230Z,424.00
2023-05-12T04:48:54.195Z,448.00
2023-05-12T04:49:54.273Z,452.00
2023-05-12T04:50:54.186Z,460.00
2023-05-12T04:51:54.165Z,488.00
2023-05-12T04:52:54.188Z,512.00
2023-05-12T04:53:54.141Z,544.00
2023-05-12T04:54:54.146Z,556.00
2023-05-12T04:55:54.204Z,596.00
2023-05-12T04:56:54.169Z,652.00
2023-05-12T04:57:54.211Z,632.00
2023-05-12T04:58:54.141Z,632.00
2023-05-12T04:59:54.132Z,668.00
2023-05-12T05:00:54.179Z,668.00
2023-05-12T05:01:54.318Z,668.00
2023-05-12T05:02:54.211Z,660.00
2023-05-12T05:03:54.201Z,672.00
2023-05-12T05:04:54.038Z,680.00
2023-05-12T05:05:54.042Z,680.00
2023-05-12T05:06:54.067Z,680.00
2023-05-12T05:07:55.115Z,684.00
2023-05-12T05:08:54.218Z,708.00
2023-05-12T05:09:54.984Z,700.00
2023-05-12T05:10:54.043Z,668.00
2023-05-12T05:11:56.030Z,668.00
2023-05-12T05:12:53.960Z,700.00
2023-05-12T05:13:56.116Z,732.00
2023-05-12T05:14:53.946Z,740.00
2023-05-12T05:15:54.127Z,760.00
2023-05-12T05:16:54.016Z,768.00
2023-05-12T05:17:54.641Z,760.00
2023-05-12T05:18:54.015Z,764.00
2023-05-12T05:19:59.004Z,772.00
2023-05-12T05:20:58.536Z,780.00
2023-05-12T05:21:54.004Z,768.00
2023-05-12T05:22:53.838Z,756.00
2023-05-12T05:23:53.912Z,720.00
2023-05-12T05:24:53.806Z,680.00
2023-05-12T05:25:53.886Z,676.00
2023-05-12T05:26:53.900Z,688.00
2023-05-12T05:27:53.781Z,704.00
2023-05-12T05:28:53.811Z,728.00
2023-05-12T05:29:53.803Z,764.00
2023-05-12T05:30:53.803Z,788.00
2023-05-12T05:31:53.795Z,808.00
2023-05-12T05:32:53.905Z,872.00
2023-05-12T05:33:53.952Z,964.00
2023-05-12T05:34:53.698Z,936.00
2023-05-12T05:35:53.735Z,904.00
2023-05-12T05:36:53.784Z,896.00
2023-05-12T05:37:53.800Z,888.00
2023-05-12T05:38:53.805Z,884.00
2023-05-12T05:39:53.658Z,888.00
2023-05-12T05:40:54.631Z,900.00
2023-05-12T05:41:53.680Z,908.00
2023-05-12T05:42:54.472Z,912.00
2023-05-12T05:43:53.664Z,912.00
2023-05-12T05:44:54.041Z,920.00
2023-05-12T05:45:53.601Z,920.00
2023-05-12T05:46:53.694Z,924.00
2023-05-12T05:47:53.738Z,936.00
2023-05-12T05:48:54.278Z,956.00
2023-05-12T05:49:53.697Z,980.00
2023-05-12T05:50:54.631Z,988.00
2023-05-12T05:51:53.614Z,988.00
2023-05-12T05:52:55.744Z,988.00
2023-05-12T05:53:53.587Z,984.00
2023-05-12T05:54:54.792Z,988.00
2023-05-12T05:55:53.557Z,1004.00
2023-05-12T05:56:53.627Z,1012.00
2023-05-12T05:57:53.471Z,1008.00
2023-05-12T05:58:53.570Z,992.00
2023-05-12T05:59:53.472Z,1008.00
2023-05-12T06:00:53.532Z,1048.00
2023-05-12T06:01:53.540Z,1092.00
2023-05-12T06:02:53.609Z,1144.00
2023-05-12T06:03:53.428Z,1200.00
2023-05-12T06:04:53.509Z,1300.00
2023-05-12T06:05:53.462Z,1420.00
2023-05-12T06:06:53.383Z,1432.00
2023-05-12T06:07:53.405Z,1404.00
2023-05-12T06:08:53.328Z,1356.00
2023-05-12T06:09:53.332Z,1388.00
2023-05-12T06:10:53.369Z,1460.00
2023-05-12T06:11:53.332Z,1476.00
2023-05-12T06:12:53.331Z,1444.00
2023-05-12T06:13:53.405Z,1380.00
2023-05-12T06:14:53.403Z,1392.00
2023-05-12T06:15:53.473Z,1424.00
2023-05-12T06:16:53.360Z,1380.00
2023-05-12T06:17:53.300Z,1332.00
2023-05-12T06:18:53.324Z,1344.00
2023-05-12T06:19:53.217Z,1328.00
2023-05-12T06:20:53.281Z,1312.00
2023-05-12T06:21:53.237Z,1388.00
2023-05-12T06:22:53.207Z,1468.00
2023-05-12T06:23:53.247Z,1516.00
2023-05-12T06:24:53.350Z,1532.00
2023-05-12T06:25:53.510Z,1520.00
2023-05-12T06:26:53.214Z,1516.00
2023-05-12T06:27:53.145Z,1580.00
2023-05-12T06:28:53.184Z,1692.00
2023-05-12T06:29:53.209Z,1840.00
2023-05-12T06:30:53.215Z,1876.00
2023-05-12T06:31:53.260Z,1836.00
2023-05-12T06:32:53.292Z,1864.00
2023-05-12T06:33:53.184Z,1852.00
2023-05-12T06:34:53.228Z,1900.00
2023-05-12T06:35:53.134Z,2016.00
2023-05-12T06:36:55.119Z,2104.00
2023-05-12T06:37:53.103Z,2148.00
2023-05-12T06:38:53.026Z,2192.00
2023-05-12T06:39:53.006Z,2228.00
2023-05-12T06:40:53.017Z,2228.00
2023-05-12T06:41:52.972Z,2220.00
2023-05-12T06:42:52.962Z,2212.00
2023-05-12T06:43:53.006Z,2200.00
2023-05-12T06:44:52.935Z,2212.00
2023-05-12T06:45:52.975Z,2248.00
2023-05-12T06:46:52.911Z,2324.00
2023-05-12T06:47:52.987Z,2416.00
2023-05-12T06:48:52.888Z,2500.00
2023-05-12T06:49:52.850Z,2588.00
2023-05-12T06:50:52.873Z,2672.00
2023-05-12T06:51:52.990Z,2756.00
2023-05-12T06:52:52.833Z,2804.00
2023-05-12T06:53:52.828Z,2776.00
2023-05-12T06:54:52.818Z,2812.00
2023-05-12T06:55:53.499Z,2792.00
2023-05-12T06:56:52.796Z,2752.00
2023-05-12T06:57:53.867Z,2688.00
2023-05-12T06:58:52.822Z,2688.00
2023-05-12T06:59:53.474Z,2744.00
2023-05-12T07:00:52.815Z,2840.00
2023-05-12T07:01:53.918Z,2896.00
2023-05-12T07:02:52.741Z,2944.00
2023-05-12T07:03:53.123Z,2892.00
2023-05-12T07:04:52.754Z,2972.00
2023-05-12T07:05:53.717Z,3008.00
2023-05-12T07:06:52.746Z,2988.00
2023-05-12T07:07:54.160Z,3040.00
2023-05-12T07:08:52.680Z,3092.00
2023-05-12T07:09:53.637Z,3064.00
2023-05-12T07:10:52.636Z,3092.00
2023-05-12T07:11:52.683Z,3068.00
2023-05-12T07:12:52.645Z,2964.00
2023-05-12T07:13:52.615Z,2892.00
2023-05-12T07:14:52.593Z,2848.00
2023-05-12T07:15:52.606Z,2792.00
2023-05-12T07:16:52.557Z,2800.00
2023-05-12T07:17:52.710Z,2832.00
2023-05-12T07:18:52.559Z,2892.00
2023-05-12T07:19:52.547Z,2908.00
2023-05-12T07:20:52.521Z,2880.00
2023-05-12T07:21:53.229Z,2944.00
2023-05-12T07:22:52.522Z,3008.00
2023-05-12T07:23:52.490Z,2972.00
2023-05-12T07:24:52.495Z,2976.00
2023-05-12T07:25:52.491Z,2904.00
2023-05-12T07:26:52.471Z,2900.00
2023-05-12T07:27:52.467Z,2916.00
2023-05-12T07:28:52.442Z,2956.00
2023-05-12T07:29:52.422Z,3020.00
2023-05-12T07:30:52.462Z,3076.00
2023-05-12T07:31:52.452Z,3156.00
2023-05-12T07:32:52.470Z,3204.00
2023-05-12T07:33:52.394Z,3204.00
2023-05-12T07:34:52.375Z,3228.00
2023-05-12T07:35:52.423Z,3296.00
2023-05-12T07:36:52.386Z,3448.00
2023-05-12T07:37:52.348Z,3720.00
2023-05-12T07:38:52.351Z,4064.00
2023-05-12T07:39:52.408Z,4304.00
2023-05-12T07:40:52.304Z,4588.00
2023-05-12T07:41:52.320Z,4820.00
2023-05-12T07:42:52.276Z,4928.00
2023-05-12T07:43:52.285Z,4820.00
2023-05-12T07:44:52.262Z,4756.00
2023-05-12T07:45:52.976Z,4744.00
2023-05-12T07:46:52.355Z,4656.00
2023-05-12T07:47:52.291Z,4384.00
2023-05-12T07:48:52.261Z,4072.00
2023-05-12T07:49:52.232Z,3852.00
2023-05-12T07:50:52.204Z,3712.00
2023-05-12T07:51:52.211Z,3636.00
2023-05-12T07:52:52.181Z,3548.00
2023-05-12T07:53:52.192Z,3640.00
2023-05-12T07:54:52.164Z,3780.00
2023-05-12T07:55:52.136Z,4036.00
2023-05-12T07:56:52.135Z,4268.00
2023-05-12T07:57:52.140Z,4308.00
2023-05-12T07:58:52.135Z,4212.00
2023-05-12T07:59:52.169Z,4040.00
2023-05-12T08:00:52.084Z,3820.00
2023-05-12T08:01:52.103Z,3628.00
2023-05-12T08:02:52.414Z,3576.00
2023-05-12T08:03:52.174Z,3656.00
2023-05-12T08:04:52.055Z,3780.00
2023-05-12T08:05:52.060Z,3916.00
2023-05-12T08:06:52.028Z,4228.00
2023-05-12T08:07:52.006Z,4708.00
2023-05-12T08:08:52.131Z,5164.00
2023-05-12T08:09:52.037Z,5492.00
2023-05-12T08:10:52.057Z,5740.00
2023-05-12T08:11:52.082Z,5912.00
2023-05-12T08:12:52.693Z,6036.00
2023-05-12T08:13:51.986Z,6148.00
2023-05-12T08:14:52.965Z,6408.00
2023-05-12T08:15:51.934Z,6788.00
2023-05-12T08:16:52.760Z,7152.00
2023-05-12T08:17:51.916Z,7380.00
2023-05-12T08:18:52.639Z,7504.00
2023-05-12T08:19:51.903Z,7276.00
2023-05-12T08:20:52.542Z,6852.00
2023-05-12T08:21:51.869Z,6472.00
2023-05-12T08:22:52.588Z,6044.00
2023-05-12T08:23:51.845Z,5568.00
2023-05-12T08:24:52.569Z,5068.00
2023-05-12T08:25:51.819Z,4848.00
2023-05-12T08:26:51.806Z,4848.00
2023-05-12T08:27:51.784Z,4888.00
2023-05-12T08:28:51.817Z,4744.00
2023-05-12T08:29:51.797Z,5260.00
2023-05-12T08:30:51.821Z,5604.00
2023-05-12T08:31:51.778Z,5432.00
2023-05-12T08:32:51.794Z,5216.00
2023-05-12T08:34:02.704Z,5040.00
2023-05-12T08:34:52.726Z,5008.00
2023-05-12T08:35:51.712Z,5040.00
2023-05-12T08:36:51.703Z,4880.00
2023-05-12T08:37:51.689Z,4768.00
2023-05-12T08:38:51.714Z,4668.00
2023-05-12T08:39:51.660Z,4544.00
2023-05-12T08:40:51.651Z,4752.00
2023-05-12T08:41:51.709Z,4616.00
2023-05-12T08:42:51.662Z,4628.00
2023-05-12T08:43:51.627Z,4656.00
2023-05-12T08:44:51.630Z,4516.00
2023-05-12T08:45:51.628Z,4432.00
2023-05-12T08:46:51.674Z,4640.00
2023-05-12T08:47:51.633Z,4880.00
2023-05-12T08:48:51.600Z,5004.00
2023-05-12T08:49:52.487Z,5312.00
2023-05-12T08:50:51.562Z,5340.00
2023-05-12T08:51:57.933Z,5200.00
2023-05-12T08:52:52.536Z,5172.00
2023-05-12T08:53:51.515Z,5044.00
2023-05-12T08:54:56.027Z,5044.00
2023-05-12T08:57:09.142Z,4944.00
2023-05-12T08:57:51.492Z,4824.00
2023-05-12T08:58:51.480Z,4756.00
2023-05-12T08:59:51.462Z,4784.00
2023-05-12T09:00:51.484Z,4792.00
2023-05-12T09:01:51.513Z,4804.00
2023-05-12T09:02:54.545Z,5008.00
2023-05-12T09:03:51.447Z,5288.00
2023-05-12T09:04:51.556Z,5552.00
2023-05-12T09:05:51.388Z,6024.00
2023-05-12T09:06:52.555Z,6032.00
2023-05-12T09:07:51.449Z,5996.00
2023-05-12T09:08:51.393Z,5932.00
2023-05-12T09:09:51.357Z,5916.00
2023-05-12T09:10:51.339Z,6080.00
2023-05-12T09:11:51.325Z,6412.00
2023-05-12T09:12:51.415Z,6692.00
2023-05-12T09:13:51.355Z,6612.00
2023-05-12T09:14:51.310Z,6560.00
2023-05-12T09:15:51.347Z,6236.00
2023-05-12T09:16:51.328Z,5924.00
2023-05-12T09:17:51.339Z,5408.00
2023-05-12T09:18:51.314Z,4648.00
2023-05-12T09:19:51.249Z,4124.00
2023-05-12T09:20:51.269Z,3932.00
2023-05-12T09:21:51.271Z,3752.00
2023-05-12T09:22:51.215Z,3796.00
2023-05-12T09:23:52.193Z,3984.00
2023-05-12T09:24:51.222Z,4028.00
2023-05-12T09:25:52.232Z,4072.00
2023-05-12T09:26:51.290Z,4288.00
2023-05-12T09:27:51.876Z,4624.00
2023-05-12T09:28:51.212Z,4816.00
2023-05-12T09:29:58.999Z,4848.00
2023-05-12T09:30:52.135Z,4880.00
2023-05-12T09:31:51.225Z,5016.00
2023-05-12T09:32:51.127Z,5156.00
2023-05-12T09:33:52.117Z,5364.00
2023-05-12T09:34:51.083Z,5488.00
2023-05-12T09:35:51.838Z,5516.00
2023-05-12T09:36:51.074Z,5792.00
2023-05-12T09:37:51.764Z,5840.00
2023-05-12T09:38:51.038Z,6028.00
2023-05-12T09:39:51.049Z,6380.00
2023-05-12T09:40:51.022Z,7104.00
2023-05-12T09:41:50.989Z,7616.00
2023-05-12T09:42:50.988Z,7384.00
2023-05-12T09:43:50.975Z,7240.00
2023-05-12T09:44:50.961Z,7088.00
2023-05-12T09:45:50.979Z,6736.00
2023-05-12T09:46:50.946Z,6328.00
2023-05-12T09:47:50.974Z,6140.00
2023-05-12T09:48:50.952Z,6136.00
2023-05-12T09:49:50.918Z,6056.00
2023-05-12T09:50:50.901Z,6044.00
2023-05-12T09:51:51.054Z,6108.00
2023-05-12T09:52:50.902Z,6232.00
2023-05-12T09:53:50.898Z,6468.00
2023-05-12T09:54:50.860Z,6580.00
2023-05-12T09:55:50.837Z,6796.00
2023-05-12T09:56:50.844Z,6784.00
2023-05-12T09:57:50.820Z,6580.00
2023-05-12T09:58:50.838Z,6228.00
2023-05-12T09:59:50.835Z,5816.00
2023-05-12T10:01:17.663Z,5636.00
2023-05-12T10:01:51.807Z,5456.00
2023-05-12T10:02:50.839Z,5356.00
2023-05-12T10:03:50.773Z,5136.00
2023-05-12T10:04:50.798Z,4708.00
2023-05-12T10:05:50.743Z,4428.00
2023-05-12T10:06:50.728Z,4516.00
2023-05-12T10:07:50.707Z,4420.00
2023-05-12T10:08:50.723Z,4108.00
2023-05-12T10:09:50.685Z,4036.00
2023-05-12T10:10:50.691Z,3972.00
2023-05-12T10:11:52.807Z,3732.00
2023-05-12T10:12:50.666Z,3468.00
2023-05-12T10:13:50.686Z,3160.00
2023-05-12T10:14:50.642Z,2848.00
2023-05-12T10:15:50.619Z,2652.00
2023-05-12T10:16:50.649Z,2580.00
2023-05-12T10:17:53.098Z,2508.00
2023-05-12T10:18:50.625Z,2448.00
2023-05-12T10:19:50.571Z,2452.00
2023-05-12T10:20:50.697Z,2480.00
2023-05-12T10:21:50.566Z,2412.00
2023-05-12T10:22:50.556Z,2308.00
2023-05-12T10:23:50.537Z,2276.00
2023-05-12T10:24:50.524Z,2376.00
2023-05-12T10:25:50.521Z,2688.00
2023-05-12T10:26:50.513Z,3080.00
2023-05-12T10:27:50.489Z,3384.00
2023-05-12T10:28:50.531Z,3728.00
2023-05-12T10:29:51.481Z,4068.00
2023-05-12T10:30:50.465Z,4384.00
2023-05-12T10:31:50.719Z,4624.00
2023-05-12T10:32:50.483Z,4820.00
2023-05-12T10:33:50.437Z,4980.00
2023-05-12T10:34:50.436Z,5112.00
2023-05-12T10:35:50.424Z,5192.00
2023-05-12T10:36:50.407Z,5292.00
2023-05-12T10:37:50.384Z,5380.00
2023-05-12T10:38:51.086Z,5476.00
2023-05-12T10:39:50.382Z,5636.00
2023-05-12T10:40:51.072Z,5836.00
2023-05-12T10:41:51.170Z,5968.00
2023-05-12T10:42:51.351Z,6104.00
2023-05-12T10:43:50.398Z,6208.00
2023-05-12T10:44:51.829Z,6420.00
2023-05-12T10:45:50.332Z,6592.00
2023-05-12T10:46:50.430Z,6768.00
2023-05-12T10:47:50.304Z,6984.00
2023-05-12T10:48:50.982Z,7272.00
2023-05-12T10:49:50.250Z,7536.00
2023-05-12T10:50:50.964Z,7556.00
2023-05-12T10:51:50.295Z,7324.00
2023-05-12T10:52:50.218Z,7104.00
2023-05-12T10:53:54.365Z,6736.00
2023-05-12T10:54:50.197Z,6428.00
2023-05-12T10:55:50.597Z,6088.00
2023-05-12T10:56:50.446Z,5876.00
2023-05-12T10:57:50.549Z,5768.00
2023-05-12T10:58:50.488Z,5712.00
2023-05-12T10:59:50.746Z,5732.00
2023-05-12T11:00:50.649Z,5768.00
2023-05-12T11:01:50.819Z,5688.00
2023-05-12T11:02:51.177Z,5524.00
2023-05-12T11:03:51.196Z,5316.00
2023-05-12T11:04:50.579Z,5128.00
2023-05-12T11:05:50.622Z,4936.00
2023-05-12T11:06:50.266Z,4728.00
2023-05-12T11:07:50.669Z,4556.00
2023-05-12T11:08:50.774Z,4420.00
2023-05-12T11:09:58.500Z,4328.00
2023-05-12T11:10:51.327Z,4276.00
2023-05-12T11:11:50.172Z,4192.00
2023-05-12T11:12:49.992Z,4108.00
2023-05-12T11:13:50.005Z,4112.00
2023-05-12T11:14:49.989Z,4052.00
2023-05-12T11:15:50.012Z,3944.00
2023-05-12T11:16:49.947Z,3848.00
2023-05-12T11:17:50.039Z,3832.00
2023-05-12T11:18:49.990Z,3844.00
2023-05-12T11:19:49.922Z,3720.00
2023-05-12T11:20:49.909Z,3552.00
2023-05-12T11:21:49.929Z,3324.00
2023-05-12T11:22:49.923Z,3096.00
2023-05-12T11:23:49.885Z,3052.00
2023-05-12T11:24:49.884Z,3164.00
2023-05-12T11:25:49.967Z,3288.00
2023-05-12T11:26:49.854Z,3380.00
2023-05-12T11:27:49.853Z,3492.00
2023-05-12T11:28:49.857Z,3640.00
2023-05-12T11:29:49.863Z,3780.00
2023-05-12T11:30:50.392Z,4044.00
2023-05-12T11:31:49.842Z,4604.00
2023-05-12T11:32:49.794Z,4912.00
2023-05-12T11:33:58.522Z,4524.00
2023-05-12T11:34:50.775Z,4472.00
2023-05-12T11:35:49.768Z,4612.00
2023-05-12T11:36:49.847Z,4868.00
2023-05-12T11:37:49.741Z,4972.00
2023-05-12T11:38:49.738Z,5232.00
2023-05-12T11:39:49.742Z,5688.00
2023-05-12T11:40:49.713Z,6440.00
2023-05-12T11:41:51.326Z,7616.00
2023-05-12T11:42:49.662Z,8796.00
2023-05-12T11:43:49.692Z,10060.00
2023-05-12T11:44:49.689Z,11000.00
2023-05-12T11:45:49.683Z,11368.00
2023-05-12T11:46:49.646Z,11060.00
2023-05-12T11:47:49.691Z,9732.00
2023-05-12T11:48:49.619Z,8576.00
2023-05-12T11:49:49.629Z,8388.00
2023-05-12T11:50:49.596Z,8968.00
2023-05-12T11:51:49.588Z,9652.00
2023-05-12T11:52:49.591Z,10184.00
2023-05-12T11:53:49.590Z,10064.00
2023-05-12T11:54:49.562Z,9792.00
2023-05-12T11:55:49.560Z,9176.00
2023-05-12T11:56:49.555Z,8828.00
2023-05-12T11:57:49.512Z,8600.00
2023-05-12T11:58:49.520Z,8780.00
2023-05-12T11:59:49.495Z,9032.00
2023-05-12T12:00:49.514Z,9256.00
2023-05-12T12:01:49.492Z,9596.00
2023-05-12T12:02:49.593Z,9892.00
2023-05-12T12:03:49.612Z,9976.00
2023-05-12T12:04:49.454Z,9452.00
2023-05-12T12:05:49.468Z,8508.00
2023-05-12T12:06:49.443Z,7268.00
2023-05-12T12:07:49.446Z,6304.00
2023-05-12T12:08:49.401Z,5404.00
2023-05-12T12:09:49.391Z,4828.00
2023-05-12T12:10:49.512Z,4636.00
2023-05-12T12:11:49.418Z,4236.00
2023-05-12T12:12:49.391Z,3992.00
2023-05-12T12:13:49.344Z,4008.00
2023-05-12T12:14:49.328Z,4276.00
2023-05-12T12:15:49.358Z,4616.00
2023-05-12T12:16:49.334Z,4760.00
2023-05-12T12:17:49.344Z,5196.00
2023-05-12T12:18:49.324Z,5048.00
2023-05-12T12:19:49.282Z,4544.00
2023-05-12T12:20:49.264Z,4568.00
2023-05-12T12:21:49.258Z,4960.00
2023-05-12T12:22:49.260Z,5488.00
2023-05-12T12:23:51.706Z,6240.00
2023-05-12T12:24:49.311Z,6440.00
2023-05-12T12:25:49.266Z,7908.00
2023-05-12T12:26:49.214Z,10168.00
2023-05-12T12:27:49.216Z,12376.00
2023-05-12T12:28:49.181Z,14368.00
2023-05-12T12:29:49.198Z,14232.00
2023-05-12T12:30:49.161Z,11920.00
2023-05-12T12:31:49.247Z,10148.00
2023-05-12T12:32:49.222Z,8632.00